sensor_id;sensor_type;location;lat;lon;timestamp;pressure;altitude;pressure_sealevel;temperature;humidity
13422;BME280;6782;55.904;13.396;2023-04-23T00:02:32;100116.03;;;9.97;100.00
13422;BME280;6782;55.904;13.396;2023-04-23T00:05:21;100088.19;;;9.90;100.00
13422;BME280;6782;55.904;13.396;2023-04-23T00:08:15;100078.31;;;9.96;100.00
13422;BME280;6782;55.904;13.396;2023-04-23T00:11:04;100052.91;;;9.94;100.00
13422;BME280;6782;55.904;13.396;2023-04-23T00:13:52;100051.84;;;10.01;100.00
13422;BME280;6782;55.904;13.396;2023-04-23T00:16:39;100058.69;;;10.06;100.00
13422;BME280;6782;55.904;13.396;2023-04-23T00:19:26;100037.47;;;10.09;100.00
13422;BME280;6782;55.904;13.396;2023-04-23T00:22:15;100035.41;;;10.21;100.00
13422;BME280;6782;55.904;13.396;2023-04-23T00:25:05;100011.53;;;10.25;100.00
13422;BME280;6782;55.904;13.396;2023-04-23T00:27:52;100009.50;;;10.33;100.00
13422;BME280;6782;55.904;13.396;2023-04-23T00:30:39;99995.63;;;10.28;100.00
13422;BME280;6782;55.904;13.396;2023-04-23T00:33:26;100000.00;;;10.29;100.00
13422;BME280;6782;55.904;13.396;2023-04-23T00:36:13;100006.75;;;10.36;100.00
13422;BME280;6782;55.904;13.396;2023-04-23T00:39:02;100019.75;;;10.42;100.00
13422;BME280;6782;55.904;13.396;2023-04-23T00:41:49;100017.84;;;10.46;100.00
13422;BME280;6782;55.904;13.396;2023-04-23T00:44:37;100030.06;;;10.48;100.00
13422;BME280;6782;55.904;13.396;2023-04-23T00:47:24;100004.94;;;10.38;100.00
13422;BME280;6782;55.904;13.396;2023-04-23T00:50:12;100005.88;;;10.37;100.00
13422;BME280;6782;55.904;13.396;2023-04-23T00:53:00;100016.78;;;10.27;100.00
13422;BME280;6782;55.904;13.396;2023-04-23T00:55:48;100024.69;;;10.27;100.00
13422;BME280;6782;55.904;13.396;2023-04-23T00:58:36;100022.28;;;10.19;100.00
13422;BME280;6782;55.904;13.396;2023-04-23T01:01:24;100031.09;;;10.18;100.00
13422;BME280;6782;55.904;13.396;2023-04-23T01:04:12;100060.50;;;10.32;100.00
13422;BME280;6782;55.904;13.396;2023-04-23T01:07:00;100043.06;;;10.28;100.00
13422;BME280;6782;55.904;13.396;2023-04-23T01:09:48;100046.91;;;10.18;100.00
13422;BME280;6782;55.904;13.396;2023-04-23T01:12:37;100052.00;;;10.24;100.00
13422;BME280;6782;55.904;13.396;2023-04-23T01:15:25;100055.53;;;10.23;100.00
13422;BME280;6782;55.904;13.396;2023-04-23T01:18:14;100039.91;;;10.17;100.00
13422;BME280;6782;55.904;13.396;2023-04-23T01:21:04;100044.22;;;10.20;100.00
13422;BME280;6782;55.904;13.396;2023-04-23T01:23:53;100044.97;;;10.23;100.00
13422;BME280;6782;55.904;13.396;2023-04-23T01:26:41;100046.81;;;10.21;100.00
13422;BME280;6782;55.904;13.396;2023-04-23T01:29:28;100040.34;;;10.30;100.00
13422;BME280;6782;55.904;13.396;2023-04-23T01:32:16;100032.41;;;10.31;100.00
13422;BME280;6782;55.904;13.396;2023-04-23T01:35:04;100022.06;;;10.25;100.00
13422;BME280;6782;55.904;13.396;2023-04-23T01:37:54;100031.63;;;10.29;100.00
13422;BME280;6782;55.904;13.396;2023-04-23T01:40:44;100029.16;;;10.23;100.00
13422;BME280;6782;55.904;13.396;2023-04-23T01:43:32;100033.47;;;10.26;100.00
13422;BME280;6782;55.904;13.396;2023-04-23T01:46:19;100026.03;;;10.12;100.00
13422;BME280;6782;55.904;13.396;2023-04-23T01:49:07;100017.13;;;10.16;100.00
13422;BME280;6782;55.904;13.396;2023-04-23T01:51:54;100017.13;;;10.16;100.00
13422;BME280;6782;55.904;13.396;2023-04-23T01:54:41;100000.56;;;10.11;100.00
13422;BME280;6782;55.904;13.396;2023-04-23T01:57:30;99999.78;;;10.09;100.00
13422;BME280;6782;55.904;13.396;2023-04-23T02:00:17;99997.94;;;10.11;100.00
13422;BME280;6782;55.904;13.396;2023-04-23T02:03:05;99990.88;;;10.13;100.00
13422;BME280;6782;55.904;13.396;2023-04-23T02:05:52;99979.59;;;10.08;100.00
13422;BME280;6782;55.904;13.396;2023-04-23T02:08:40;99980.34;;;10.13;100.00
13422;BME280;6782;55.904;13.396;2023-04-23T02:11:27;99994.22;;;10.18;100.00
13422;BME280;6782;55.904;13.396;2023-04-23T02:14:16;99978.50;;;10.15;100.00
13422;BME280;6782;55.904;13.396;2023-04-23T02:17:03;100004.44;;;10.27;100.00
13422;BME280;6782;55.904;13.396;2023-04-23T02:19:51;99993.88;;;10.27;100.00
13422;BME280;6782;55.904;13.396;2023-04-23T02:22:40;99955.78;;;10.11;100.00
13422;BME280;6782;55.904;13.396;2023-04-23T02:25:28;99952.34;;;10.09;100.00
13422;BME280;6782;55.904;13.396;2023-04-23T02:28:16;99960.25;;;10.09;100.00
13422;BME280;6782;55.904;13.396;2023-04-23T02:31:05;99979.16;;;10.22;100.00
13422;BME280;6782;55.904;13.396;2023-04-23T02:33:52;99991.38;;;10.24;100.00
13422;BME280;6782;55.904;13.396;2023-04-23T02:36:39;100006.50;;;10.44;100.00
13422;BME280;6782;55.904;13.396;2023-04-23T02:39:26;99956.56;;;10.15;100.00
13422;BME280;6782;55.904;13.396;2023-04-23T02:42:14;99952.16;;;10.15;100.00
13422;BME280;6782;55.904;13.396;2023-04-23T02:45:01;99973.03;;;10.21;100.00
13422;BME280;6782;55.904;13.396;2023-04-23T02:47:50;99950.53;;;10.11;100.00
13422;BME280;6782;55.904;13.396;2023-04-23T02:50:38;99945.44;;;10.05;100.00
13422;BME280;6782;55.904;13.396;2023-04-23T02:53:26;99958.81;;;10.25;100.00
13422;BME280;6782;55.904;13.396;2023-04-23T02:56:13;99962.41;;;10.24;100.00
13422;BME280;6782;55.904;13.396;2023-04-23T02:59:00;99925.84;;;9.87;100.00
13422;BME280;6782;55.904;13.396;2023-04-23T03:01:47;99932.03;;;9.86;100.00
13422;BME280;6782;55.904;13.396;2023-04-23T03:04:36;99897.84;;;9.59;100.00
13422;BME280;6782;55.904;13.396;2023-04-23T03:07:24;99905.22;;;9.48;100.00
13422;BME280;6782;55.904;13.396;2023-04-23T03:10:11;99909.19;;;9.34;100.00
13422;BME280;6782;55.904;13.396;2023-04-23T03:12:58;99888.50;;;9.22;100.00
13422;BME280;6782;55.904;13.396;2023-04-23T03:15:46;99903.63;;;9.43;100.00
13422;BME280;6782;55.904;13.396;2023-04-23T03:18:33;99899.97;;;9.48;100.00
13422;BME280;6782;55.904;13.396;2023-04-23T03:21:22;99877.81;;;9.28;100.00
13422;BME280;6782;55.904;13.396;2023-04-23T03:24:11;99886.22;;;9.39;100.00
13422;BME280;6782;55.904;13.396;2023-04-23T03:26:59;99905.13;;;9.78;100.00
13422;BME280;6782;55.904;13.396;2023-04-23T03:29:46;99880.41;;;9.56;100.00
13422;BME280;6782;55.904;13.396;2023-04-23T03:32:33;99884.59;;;9.62;100.00
13422;BME280;6782;55.904;13.396;2023-04-23T03:35:21;99868.88;;;9.60;100.00
13422;BME280;6782;55.904;13.396;2023-04-23T03:38:09;99872.31;;;9.62;100.00
13422;BME280;6782;55.904;13.396;2023-04-23T03:40:56;99858.38;;;9.59;100.00
13422;BME280;6782;55.904;13.396;2023-04-23T03:43:44;99874.69;;;9.70;100.00
13422;BME280;6782;55.904;13.396;2023-04-23T03:46:31;99854.63;;;9.66;100.00
13422;BME280;6782;55.904;13.396;2023-04-23T03:49:18;99861.34;;;9.74;100.00
13422;BME280;6782;55.904;13.396;2023-04-23T03:52:05;99845.13;;;9.62;100.00
13422;BME280;6782;55.904;13.396;2023-04-23T03:54:54;99847.50;;;9.69;100.00
13422;BME280;6782;55.904;13.396;2023-04-23T03:57:41;99855.03;;;9.80;100.00
13422;BME280;6782;55.904;13.396;2023-04-23T04:00:28;99890.31;;;10.25;100.00
13422;BME280;6782;55.904;13.396;2023-04-23T04:03:15;99917.13;;;10.84;100.00
13422;BME280;6782;55.904;13.396;2023-04-23T04:06:03;99913.84;;;11.24;100.00
13422;BME280;6782;55.904;13.396;2023-04-23T04:08:50;99879.75;;;11.18;100.00
13422;BME280;6782;55.904;13.396;2023-04-23T04:11:39;99851.59;;;10.74;100.00
13422;BME280;6782;55.904;13.396;2023-04-23T04:14:26;99871.75;;;10.98;100.00
13422;BME280;6782;55.904;13.396;2023-04-23T04:17:14;99905.06;;;11.45;100.00
13422;BME280;6782;55.904;13.396;2023-04-23T04:20:01;99889.03;;;11.91;100.00
13422;BME280;6782;55.904;13.396;2023-04-23T04:22:48;99913.38;;;12.40;100.00
13422;BME280;6782;55.904;13.396;2023-04-23T04:25:35;99940.13;;;13.11;100.00
13422;BME280;6782;55.904;13.396;2023-04-23T04:28:26;99864.81;;;13.36;100.00
13422;BME280;6782;55.904;13.396;2023-04-23T04:31:13;99763.56;;;12.76;100.00
13422;BME280;6782;55.904;13.396;2023-04-23T04:34:02;99712.34;;;12.23;100.00
13422;BME280;6782;55.904;13.396;2023-04-23T04:36:49;99712.50;;;11.61;100.00
13422;BME280;6782;55.904;13.396;2023-04-23T04:39:38;99742.16;;;11.27;100.00
13422;BME280;6782;55.904;13.396;2023-04-23T04:42:26;99796.81;;;11.45;100.00
13422;BME280;6782;55.904;13.396;2023-04-23T04:45:15;99834.06;;;11.59;100.00
13422;BME280;6782;55.904;13.396;2023-04-23T04:48:03;99829.16;;;11.50;100.00
13422;BME280;6782;55.904;13.396;2023-04-23T04:50:50;99841.19;;;11.57;100.00
13422;BME280;6782;55.904;13.396;2023-04-23T04:53:37;99842.75;;;11.61;100.00
13422;BME280;6782;55.904;13.396;2023-04-23T04:56:24;99834.66;;;11.66;100.00
13422;BME280;6782;55.904;13.396;2023-04-23T04:59:12;99844.94;;;11.73;100.00
13422;BME280;6782;55.904;13.396;2023-04-23T05:02:01;99841.66;;;11.67;100.00
13422;BME280;6782;55.904;13.396;2023-04-23T05:04:48;99869.88;;;11.86;100.00
13422;BME280;6782;55.904;13.396;2023-04-23T05:07:35;99881.53;;;12.03;100.00
13422;BME280;6782;55.904;13.396;2023-04-23T05:10:22;99886.56;;;12.09;100.00
13422;BME280;6782;55.904;13.396;2023-04-23T05:13:09;99894.47;;;12.29;100.00
13422;BME280;6782;55.904;13.396;2023-04-23T05:15:56;99848.13;;;12.02;100.00
13422;BME280;6782;55.904;13.396;2023-04-23T05:18:45;99903.16;;;12.32;100.00
13422;BME280;6782;55.904;13.396;2023-04-23T05:21:32;99900.22;;;12.38;100.00
13422;BME280;6782;55.904;13.396;2023-04-23T05:24:20;99895.78;;;12.39;100.00
13422;BME280;6782;55.904;13.396;2023-04-23T05:27:07;99886.78;;;12.43;100.00
13422;BME280;6782;55.904;13.396;2023-04-23T05:29:54;99896.97;;;12.52;100.00
13422;BME280;6782;55.904;13.396;2023-04-23T05:32:41;99884.66;;;12.51;100.00
13422;BME280;6782;55.904;13.396;2023-04-23T05:35:30;99866.44;;;12.45;100.00
13422;BME280;6782;55.904;13.396;2023-04-23T05:38:17;99885.78;;;12.45;100.00
13422;BME280;6782;55.904;13.396;2023-04-23T05:41:04;99894.59;;;12.46;100.00
13422;BME280;6782;55.904;13.396;2023-04-23T05:43:51;99889.44;;;12.43;100.00
13422;BME280;6782;55.904;13.396;2023-04-23T05:46:39;99899.69;;;12.50;100.00
13422;BME280;6782;55.904;13.396;2023-04-23T05:49:26;99900.13;;;12.60;100.00
13422;BME280;6782;55.904;13.396;2023-04-23T05:52:15;99938.19;;;12.76;100.00
13422;BME280;6782;55.904;13.396;2023-04-23T05:55:02;99935.44;;;12.98;100.00
13422;BME280;6782;55.904;13.396;2023-04-23T05:57:50;99889.28;;;12.85;100.00
13422;BME280;6782;55.904;13.396;2023-04-23T06:00:37;99889.06;;;12.89;100.00
13422;BME280;6782;55.904;13.396;2023-04-23T06:03:25;99916.81;;;13.20;100.00
13422;BME280;6782;55.904;13.396;2023-04-23T06:06:12;99904.25;;;13.42;100.00
13422;BME280;6782;55.904;13.396;2023-04-23T06:09:02;99873.81;;;13.50;100.00
13422;BME280;6782;55.904;13.396;2023-04-23T06:11:50;99874.59;;;13.52;100.00
13422;BME280;6782;55.904;13.396;2023-04-23T06:14:38;99877.19;;;13.71;100.00
13422;BME280;6782;55.904;13.396;2023-04-23T06:17:25;99837.28;;;13.57;100.00
13422;BME280;6782;55.904;13.396;2023-04-23T06:20:12;99863.63;;;13.60;100.00
13422;BME280;6782;55.904;13.396;2023-04-23T06:23:02;99861.06;;;13.58;100.00
13422;BME280;6782;55.904;13.396;2023-04-23T06:25:51;99833.91;;;13.53;100.00
13422;BME280;6782;55.904;13.396;2023-04-23T06:28:38;99842.72;;;13.54;100.00
13422;BME280;6782;55.904;13.396;2023-04-23T06:31:25;99863.13;;;13.69;100.00
13422;BME280;6782;55.904;13.396;2023-04-23T06:34:12;99876.38;;;13.52;100.00
13422;BME280;6782;55.904;13.396;2023-04-23T06:37:00;99938.56;;;13.62;100.00
13422;BME280;6782;55.904;13.396;2023-04-23T06:39:47;99919.22;;;13.43;100.00
13422;BME280;6782;55.904;13.396;2023-04-23T06:42:36;99940.59;;;13.57;100.00
13422;BME280;6782;55.904;13.396;2023-04-23T06:45:24;99938.81;;;13.57;100.00
13422;BME280;6782;55.904;13.396;2023-04-23T06:48:11;99933.53;;;13.39;100.00
13422;BME280;6782;55.904;13.396;2023-04-23T06:50:58;99940.03;;;13.50;100.00
13422;BME280;6782;55.904;13.396;2023-04-23T06:53:46;99912.66;;;13.33;100.00
13422;BME280;6782;55.904;13.396;2023-04-23T06:56:33;99914.56;;;13.10;100.00
13422;BME280;6782;55.904;13.396;2023-04-23T06:59:22;99911.03;;;12.91;100.00
13422;BME280;6782;55.904;13.396;2023-04-23T07:02:09;99935.06;;;13.05;100.00
13422;BME280;6782;55.904;13.396;2023-04-23T07:04:57;99913.13;;;13.03;100.00
13422;BME280;6782;55.904;13.396;2023-04-23T07:07:45;99929.09;;;13.21;100.00
13422;BME280;6782;55.904;13.396;2023-04-23T07:10:32;99959.41;;;13.51;100.00
13422;BME280;6782;55.904;13.396;2023-04-23T07:13:19;99964.31;;;13.77;100.00
13422;BME280;6782;55.904;13.396;2023-04-23T07:16:08;99930.06;;;13.91;100.00
13422;BME280;6782;55.904;13.396;2023-04-23T07:18:56;99915.56;;;13.81;100.00
13422;BME280;6782;55.904;13.396;2023-04-23T07:21:43;99888.41;;;13.93;100.00
13422;BME280;6782;55.904;13.396;2023-04-23T07:24:30;99895.91;;;14.19;100.00
13422;BME280;6782;55.904;13.396;2023-04-23T07:27:18;99876.88;;;14.11;100.00
13422;BME280;6782;55.904;13.396;2023-04-23T07:30:06;99890.75;;;14.51;100.00
13422;BME280;6782;55.904;13.396;2023-04-23T07:32:57;99844.91;;;14.14;100.00
13422;BME280;6782;55.904;13.396;2023-04-23T07:35:44;99820.59;;;13.72;100.00
13422;BME280;6782;55.904;13.396;2023-04-23T07:38:31;99860.19;;;14.09;100.00
13422;BME280;6782;55.904;13.396;2023-04-23T07:41:18;99835.84;;;14.18;100.00
13422;BME280;6782;55.904;13.396;2023-04-23T07:44:06;99737.31;;;13.26;100.00
13422;BME280;6782;55.904;13.396;2023-04-23T07:46:53;99886.06;;;13.87;100.00
13422;BME280;6782;55.904;13.396;2023-04-23T07:49:42;99945.06;;;14.43;100.00
13422;BME280;6782;55.904;13.396;2023-04-23T07:52:29;99888.88;;;14.18;100.00
13422;BME280;6782;55.904;13.396;2023-04-23T07:55:16;99955.66;;;14.43;100.00
13422;BME280;6782;55.904;13.396;2023-04-23T07:58:05;99998.22;;;14.92;100.00
13422;BME280;6782;55.904;13.396;2023-04-23T08:00:52;100014.19;;;15.40;100.00
13422;BME280;6782;55.904;13.396;2023-04-23T08:03:39;99959.56;;;15.19;100.00
13422;BME280;6782;55.904;13.396;2023-04-23T08:06:28;99958.34;;;15.57;100.00
13422;BME280;6782;55.904;13.396;2023-04-23T08:09:16;99986.91;;;16.45;100.00
13422;BME280;6782;55.904;13.396;2023-04-23T08:12:03;99975.59;;;17.13;100.00
13422;BME280;6782;55.904;13.396;2023-04-23T08:14:50;99867.97;;;17.16;100.00
13422;BME280;6782;55.904;13.396;2023-04-23T08:17:38;99854.81;;;16.86;100.00
13422;BME280;6782;55.904;13.396;2023-04-23T08:20:25;99858.47;;;16.41;100.00
13422;BME280;6782;55.904;13.396;2023-04-23T08:23:14;99859.53;;;16.24;100.00
13422;BME280;6782;55.904;13.396;2023-04-23T08:26:01;99888.00;;;16.08;100.00
13422;BME280;6782;55.904;13.396;2023-04-23T08:28:49;99837.47;;;15.18;100.00
13422;BME280;6782;55.904;13.396;2023-04-23T08:31:37;99902.47;;;14.95;100.00
13422;BME280;6782;55.904;13.396;2023-04-23T08:34:24;99951.31;;;15.08;100.00
13422;BME280;6782;55.904;13.396;2023-04-23T08:37:12;99948.44;;;14.80;100.00
13422;BME280;6782;55.904;13.396;2023-04-23T08:40:01;99946.94;;;14.41;100.00
13422;BME280;6782;55.904;13.396;2023-04-23T08:42:56;99959.94;;;14.29;100.00
13422;BME280;6782;55.904;13.396;2023-04-23T08:45:46;99947.69;;;14.26;100.00
13422;BME280;6782;55.904;13.396;2023-04-23T08:48:34;99941.75;;;14.21;100.00
13422;BME280;6782;55.904;13.396;2023-04-23T08:51:23;99931.44;;;14.15;100.00
13422;BME280;6782;55.904;13.396;2023-04-23T08:54:14;99920.22;;;13.93;100.00
13422;BME280;6782;55.904;13.396;2023-04-23T08:57:03;99902.78;;;13.89;100.00
13422;BME280;6782;55.904;13.396;2023-04-23T08:59:51;99895.91;;;13.85;100.00
13422;BME280;6782;55.904;13.396;2023-04-23T09:02:39;99871.22;;;13.49;100.00
13422;BME280;6782;55.904;13.396;2023-04-23T09:05:27;99858.88;;;13.31;100.00
13422;BME280;6782;55.904;13.396;2023-04-23T09:08:14;99799.31;;;13.03;100.00
13422;BME280;6782;55.904;13.396;2023-04-23T09:11:03;99805.91;;;13.31;100.00
13422;BME280;6782;55.904;13.396;2023-04-23T09:13:53;99780.38;;;13.30;100.00
13422;BME280;6782;55.904;13.396;2023-04-23T09:16:40;99763.53;;;13.13;100.00
13422;BME280;6782;55.904;13.396;2023-04-23T09:19:28;99769.13;;;13.07;100.00
13422;BME280;6782;55.904;13.396;2023-04-23T09:22:16;99777.88;;;13.09;100.00
13422;BME280;6782;55.904;13.396;2023-04-23T09:25:23;99762.13;;;13.06;100.00
13422;BME280;6782;55.904;13.396;2023-04-23T09:28:10;99753.66;;;12.98;100.00
13422;BME280;6782;55.904;13.396;2023-04-23T09:31:01;99763.41;;;12.79;100.00
13422;BME280;6782;55.904;13.396;2023-04-23T09:33:52;99769.56;;;12.80;100.00
13422;BME280;6782;55.904;13.396;2023-04-23T09:36:41;99778.47;;;12.79;100.00
13422;BME280;6782;55.904;13.396;2023-04-23T09:39:28;99782.16;;;12.93;100.00
13422;BME280;6782;55.904;13.396;2023-04-23T09:42:16;99782.75;;;12.81;100.00
13422;BME280;6782;55.904;13.396;2023-04-23T09:45:05;99786.41;;;12.79;100.00
13422;BME280;6782;55.904;13.396;2023-04-23T09:47:56;99791.75;;;12.77;100.00
13422;BME280;6782;55.904;13.396;2023-04-23T09:50:44;99798.75;;;12.78;100.00
13422;BME280;6782;55.904;13.396;2023-04-23T09:53:39;99817.78;;;12.86;100.00
13422;BME280;6782;55.904;13.396;2023-04-23T09:56:27;99826.63;;;12.85;100.00
13422;BME280;6782;55.904;13.396;2023-04-23T09:59:19;99843.16;;;12.90;100.00
13422;BME280;6782;55.904;13.396;2023-04-23T10:02:07;99861.53;;;12.93;100.00
13422;BME280;6782;55.904;13.396;2023-04-23T10:04:55;99869.13;;;12.82;100.00
13422;BME280;6782;55.904;13.396;2023-04-23T10:07:43;99873.75;;;12.77;100.00
13422;BME280;6782;55.904;13.396;2023-04-23T10:10:33;99879.13;;;12.76;100.00
13422;BME280;6782;55.904;13.396;2023-04-23T10:13:20;99866.78;;;12.56;100.00
13422;BME280;6782;55.904;13.396;2023-04-23T10:16:09;99880.50;;;12.45;100.00
13422;BME280;6782;55.904;13.396;2023-04-23T10:18:58;99903.50;;;12.43;100.00
13422;BME280;6782;55.904;13.396;2023-04-23T10:21:52;99914.03;;;12.45;100.00
13422;BME280;6782;55.904;13.396;2023-04-23T10:24:40;99941.16;;;12.50;100.00
13422;BME280;6782;55.904;13.396;2023-04-23T10:27:28;99964.47;;;12.61;100.00
13422;BME280;6782;55.904;13.396;2023-04-23T10:30:17;99983.91;;;12.60;100.00
13422;BME280;6782;55.904;13.396;2023-04-23T10:33:06;99998.66;;;12.45;100.00
13422;BME280;6782;55.904;13.396;2023-04-23T10:35:55;100022.84;;;12.36;100.00
13422;BME280;6782;55.904;13.396;2023-04-23T10:38:45;100034.34;;;12.35;100.00
13422;BME280;6782;55.904;13.396;2023-04-23T10:41:35;100047.81;;;12.29;100.00
13422;BME280;6782;55.904;13.396;2023-04-23T10:44:31;100070.72;;;12.30;100.00
13422;BME280;6782;55.904;13.396;2023-04-23T10:47:18;100085.81;;;12.26;100.00
13422;BME280;6782;55.904;13.396;2023-04-23T10:50:21;100104.75;;;12.16;100.00
13422;BME280;6782;55.904;13.396;2023-04-23T10:53:17;100129.44;;;12.15;100.00
13422;BME280;6782;55.904;13.396;2023-04-23T10:56:08;100133.63;;;11.99;100.00
13422;BME280;6782;55.904;13.396;2023-04-23T10:58:55;100143.41;;;11.97;100.00
13422;BME280;6782;55.904;13.396;2023-04-23T11:01:45;100180.63;;;12.14;100.00
13422;BME280;6782;55.904;13.396;2023-04-23T11:04:34;100195.41;;;12.18;100.00
13422;BME280;6782;55.904;13.396;2023-04-23T11:07:24;100215.25;;;12.29;100.00
13422;BME280;6782;55.904;13.396;2023-04-23T11:10:13;100223.63;;;12.17;100.00
13422;BME280;6782;55.904;13.396;2023-04-23T11:13:22;100242.38;;;12.34;100.00
13422;BME280;6782;55.904;13.396;2023-04-23T11:16:16;100248.84;;;12.49;100.00
13422;BME280;6782;55.904;13.396;2023-04-23T11:19:08;100261.19;;;12.48;100.00
13422;BME280;6782;55.904;13.396;2023-04-23T11:22:01;100267.84;;;12.37;100.00
13422;BME280;6782;55.904;13.396;2023-04-23T11:24:51;100280.38;;;12.32;100.00
13422;BME280;6782;55.904;13.396;2023-04-23T11:27:40;100289.72;;;12.40;100.00
13422;BME280;6782;55.904;13.396;2023-04-23T11:30:30;100292.22;;;12.45;100.00
13422;BME280;6782;55.904;13.396;2023-04-23T11:33:18;100303.00;;;12.16;100.00
13422;BME280;6782;55.904;13.396;2023-04-23T11:36:05;100301.34;;;12.13;100.00
13422;BME280;6782;55.904;13.396;2023-04-23T11:38:55;100318.31;;;12.54;100.00
13422;BME280;6782;55.904;13.396;2023-04-23T11:41:43;100325.44;;;12.52;100.00
13422;BME280;6782;55.904;13.396;2023-04-23T11:44:31;100338.38;;;12.36;100.00
13422;BME280;6782;55.904;13.396;2023-04-23T11:47:20;100336.13;;;12.26;100.00
13422;BME280;6782;55.904;13.396;2023-04-23T11:50:16;100336.59;;;12.12;100.00
13422;BME280;6782;55.904;13.396;2023-04-23T11:53:04;100341.88;;;12.37;100.00
13422;BME280;6782;55.904;13.396;2023-04-23T11:55:52;100366.47;;;12.39;100.00
13422;BME280;6782;55.904;13.396;2023-04-23T11:58:40;100380.81;;;12.56;100.00
13422;BME280;6782;55.904;13.396;2023-04-23T12:01:38;100379.34;;;12.25;100.00
13422;BME280;6782;55.904;13.396;2023-04-23T12:04:28;100384.09;;;12.15;100.00
13422;BME280;6782;55.904;13.396;2023-04-23T12:07:17;100398.88;;;12.21;100.00
13422;BME280;6782;55.904;13.396;2023-04-23T12:10:05;100397.91;;;11.99;100.00
13422;BME280;6782;55.904;13.396;2023-04-23T12:12:53;100398.38;;;11.85;100.00
13422;BME280;6782;55.904;13.396;2023-04-23T12:15:46;100407.09;;;11.87;100.00
13422;BME280;6782;55.904;13.396;2023-04-23T12:18:38;100438.00;;;11.85;100.00
13422;BME280;6782;55.904;13.396;2023-04-23T12:21:28;100451.28;;;11.83;100.00
13422;BME280;6782;55.904;13.396;2023-04-23T12:24:15;100459.78;;;11.91;100.00
13422;BME280;6782;55.904;13.396;2023-04-23T12:27:02;100462.81;;;11.81;100.00
13422;BME280;6782;55.904;13.396;2023-04-23T12:29:59;100472.69;;;11.74;100.00
13422;BME280;6782;55.904;13.396;2023-04-23T12:32:47;100474.69;;;11.66;100.00
13422;BME280;6782;55.904;13.396;2023-04-23T12:35:38;100447.53;;;11.63;100.00
13422;BME280;6782;55.904;13.396;2023-04-23T12:38:27;100460.84;;;11.58;100.00
13422;BME280;6782;55.904;13.396;2023-04-23T12:41:16;100462.78;;;11.53;100.00
13422;BME280;6782;55.904;13.396;2023-04-23T12:44:03;100459.44;;;11.48;100.00
13422;BME280;6782;55.904;13.396;2023-04-23T12:46:54;100478.44;;;11.59;100.00
13422;BME280;6782;55.904;13.396;2023-04-23T12:49:42;100483.66;;;11.61;100.00
13422;BME280;6782;55.904;13.396;2023-04-23T12:52:30;100499.84;;;11.79;100.00
13422;BME280;6782;55.904;13.396;2023-04-23T12:55:19;100496.19;;;11.83;100.00
13422;BME280;6782;55.904;13.396;2023-04-23T12:58:07;100492.13;;;11.73;100.00
13422;BME280;6782;55.904;13.396;2023-04-23T13:00:54;100507.34;;;11.91;100.00
13422;BME280;6782;55.904;13.396;2023-04-23T13:03:41;100510.44;;;12.06;100.00
13422;BME280;6782;55.904;13.396;2023-04-23T13:06:29;100508.41;;;12.14;100.00
13422;BME280;6782;55.904;13.396;2023-04-23T13:09:16;100501.81;;;12.25;100.00
13422;BME280;6782;55.904;13.396;2023-04-23T13:12:05;100500.75;;;12.31;100.00
13422;BME280;6782;55.904;13.396;2023-04-23T13:14:52;100495.47;;;12.31;100.00
13422;BME280;6782;55.904;13.396;2023-04-23T13:17:39;100497.31;;;12.29;100.00
13422;BME280;6782;55.904;13.396;2023-04-23T13:20:26;62769.09;;;-143.06;100.00
13422;BME280;6782;55.904;13.396;2023-04-23T13:23:14;62769.09;;;-143.06;100.00
13422;BME280;6782;55.904;13.396;2023-04-23T13:26:02;62769.09;;;-143.06;100.00
13422;BME280;6782;55.904;13.396;2023-04-23T13:28:53;100468.81;;;11.86;100.00
13422;BME280;6782;55.904;13.396;2023-04-23T13:31:40;100464.53;;;11.82;100.00
13422;BME280;6782;55.904;13.396;2023-04-23T13:34:28;62769.09;;;-143.06;100.00
13422;BME280;6782;55.904;13.396;2023-04-23T13:37:15;62769.09;;;-143.06;100.00
13422;BME280;6782;55.904;13.396;2023-04-23T13:40:03;62769.09;;;-143.06;100.00
13422;BME280;6782;55.904;13.396;2023-04-23T13:42:50;62769.09;;;-143.06;100.00
13422;BME280;6782;55.904;13.396;2023-04-23T13:45:41;62769.09;;;-143.06;100.00
13422;BME280;6782;55.904;13.396;2023-04-23T13:48:28;62769.09;;;-143.06;100.00
13422;BME280;6782;55.904;13.396;2023-04-23T13:51:18;100456.50;;;12.61;100.00
13422;BME280;6782;55.904;13.396;2023-04-23T13:54:07;62769.09;;;-143.06;100.00
13422;BME280;6782;55.904;13.396;2023-04-23T13:56:54;100451.06;;;12.64;100.00
13422;BME280;6782;55.904;13.396;2023-04-23T13:59:42;100442.59;;;12.79;100.00
13422;BME280;6782;55.904;13.396;2023-04-23T14:02:30;100447.63;;;13.09;100.00
13422;BME280;6782;55.904;13.396;2023-04-23T14:05:19;100430.94;;;13.07;100.00
13422;BME280;6782;55.904;13.396;2023-04-23T14:08:07;100414.69;;;13.16;100.00
13422;BME280;6782;55.904;13.396;2023-04-23T14:10:54;100410.31;;;13.15;100.00
13422;BME280;6782;55.904;13.396;2023-04-23T14:13:41;100390.00;;;13.16;100.00
13422;BME280;6782;55.904;13.396;2023-04-23T14:16:29;100382.34;;;12.85;100.00
13422;BME280;6782;55.904;13.396;2023-04-23T14:19:17;100367.94;;;12.71;100.00
13422;BME280;6782;55.904;13.396;2023-04-23T14:22:05;100360.72;;;12.74;100.00
13422;BME280;6782;55.904;13.396;2023-04-23T14:24:55;100328.78;;;12.57;100.00
13422;BME280;6782;55.904;13.396;2023-04-23T14:27:45;100341.25;;;12.98;100.00
13422;BME280;6782;55.904;13.396;2023-04-23T14:30:39;100338.06;;;13.34;100.00
13422;BME280;6782;55.904;13.396;2023-04-23T14:33:27;100331.56;;;13.42;100.00
13422;BME280;6782;55.904;13.396;2023-04-23T14:36:15;100305.03;;;13.22;100.00